createdAt,value
2022-12-20T00:01:31.815Z,18.98
2022-12-20T00:08:14.690Z,18.80
2022-12-20T00:14:57.044Z,19.13
2022-12-20T00:21:39.411Z,18.10
2022-12-20T00:28:25.523Z,17.50
2022-12-20T00:35:08.807Z,17.83
2022-12-20T00:41:51.325Z,16.45
2022-12-20T00:48:34.253Z,16.08
2022-12-20T00:55:16.694Z,17.25
2022-12-20T01:02:01.908Z,18.40
2022-12-20T01:08:44.875Z,15.07
2022-12-20T01:15:27.393Z,16.88
2022-12-20T01:22:17.239Z,15.48
2022-12-20T01:29:00.459Z,15.32
2022-12-20T01:35:42.810Z,16.50
2022-12-20T01:42:25.167Z,16.67
2022-12-20T01:49:13.143Z,16.85
2022-12-20T01:55:55.657Z,17.67
2022-12-20T02:02:39.187Z,16.92
2022-12-20T02:09:23.768Z,18.02
2022-12-20T02:16:06.261Z,17.08
2022-12-20T02:23:19.421Z,17.48
2022-12-20T02:30:04.876Z,16.25
2022-12-20T02:36:47.438Z,17.75
2022-12-20T02:44:04.148Z,16.00
2022-12-20T02:50:52.455Z,17.52
2022-12-20T02:58:02.777Z,16.17
2022-12-20T03:04:46.286Z,16.83
2022-12-20T03:11:28.814Z,16.15
2022-12-20T03:18:11.674Z,15.93
2022-12-20T03:24:54.163Z,17.23
2022-12-20T03:31:37.455Z,16.20
2022-12-20T03:38:38.630Z,15.48
2022-12-20T03:45:23.009Z,15.05
2022-12-20T03:52:05.979Z,14.82
2022-12-20T03:58:49.381Z,15.88
2022-12-20T04:05:32.189Z,15.52
2022-12-20T04:12:14.625Z,15.20
2022-12-20T04:18:57.446Z,14.90
2022-12-20T04:25:40.892Z,13.80
2022-12-20T04:32:25.725Z,14.23
2022-12-20T04:39:08.498Z,15.50
2022-12-20T04:46:01.286Z,13.52
2022-12-20T04:53:02.632Z,14.95
2022-12-20T04:59:45.577Z,14.48
2022-12-20T05:06:29.987Z,14.52
2022-12-20T05:13:14.537Z,13.82
2022-12-20T05:20:00.142Z,14.95
2022-12-20T05:26:42.725Z,14.77
2022-12-20T05:33:32.091Z,14.73
2022-12-20T05:40:17.796Z,15.23
2022-12-20T05:47:00.624Z,13.77
2022-12-20T05:53:46.510Z,13.57
2022-12-20T06:00:30.458Z,13.23
2022-12-20T06:07:13.227Z,13.80
2022-12-20T06:13:56.678Z,14.02
2022-12-20T06:20:39.475Z,13.07
2022-12-20T06:27:23.472Z,13.82
2022-12-20T06:34:16.099Z,12.48
2022-12-20T06:40:59.199Z,13.38
2022-12-20T06:47:41.805Z,14.02
2022-12-20T06:54:24.535Z,14.65
2022-12-20T07:01:10.175Z,13.57
2022-12-20T07:07:54.867Z,14.02
2022-12-20T07:14:37.250Z,12.02
2022-12-20T07:21:20.154Z,13.95
2022-12-20T07:28:03.051Z,13.73
2022-12-20T07:34:45.377Z,13.65
2022-12-20T07:41:27.960Z,14.00
2022-12-20T07:48:15.719Z,13.05
2022-12-20T07:55:05.524Z,14.15
2022-12-20T08:01:48.750Z,14.75
2022-12-20T08:08:38.075Z,14.20
2022-12-20T08:15:23.015Z,14.40
2022-12-20T08:22:06.228Z,13.65
2022-12-20T08:28:48.628Z,14.13
2022-12-20T08:35:31.584Z,13.55
2022-12-20T08:42:14.066Z,12.73
2022-12-20T08:48:56.534Z,12.35
2022-12-20T08:55:38.847Z,12.13
2022-12-20T09:02:21.483Z,17.98
2022-12-20T09:09:04.960Z,11.57
2022-12-20T09:16:15.873Z,10.15
2022-12-20T09:23:01.795Z,10.18
2022-12-20T09:29:44.118Z,9.90
2022-12-20T09:36:28.207Z,7.80
2022-12-20T09:43:12.187Z,7.57
2022-12-20T09:49:57.463Z,7.47
2022-12-20T09:56:48.297Z,7.65
2022-12-20T10:03:35.815Z,7.60
2022-12-20T10:10:21.436Z,7.00
2022-12-20T10:17:13.133Z,5.45
2022-12-20T10:24:05.303Z,6.13
2022-12-20T10:30:47.645Z,6.82
2022-12-20T10:37:30.061Z,5.70
2022-12-20T10:44:20.310Z,6.03
2022-12-20T10:51:15.163Z,7.43
2022-12-20T10:58:06.793Z,7.28
2022-12-20T11:05:20.922Z,7.70
2022-12-20T11:12:11.716Z,8.20
2022-12-20T11:19:39.629Z,7.55
2022-12-20T11:26:42.183Z,8.15
2022-12-20T11:33:41.934Z,8.30
2022-12-20T11:40:28.350Z,9.23
2022-12-20T11:47:30.256Z,9.75
2022-12-20T11:54:40.324Z,10.90
2022-12-20T12:01:30.110Z,10.70
2022-12-20T12:08:25.578Z,10.23
2022-12-20T12:15:35.108Z,10.23
2022-12-20T12:22:24.647Z,10.18
2022-12-20T12:29:11.617Z,9.13
2022-12-20T12:36:06.054Z,10.50
2022-12-20T12:43:10.235Z,8.93
2022-12-20T12:49:55.797Z,9.63
2022-12-20T12:56:44.499Z,10.20
2022-12-20T13:04:06.555Z,9.60
2022-12-20T13:10:59.160Z,8.30
2022-12-20T13:18:13.743Z,9.40
2022-12-20T13:24:58.227Z,9.48
2022-12-20T13:31:40.544Z,10.80
2022-12-20T13:38:47.708Z,9.95
2022-12-20T13:45:30.250Z,7.07
2022-12-20T13:52:31.149Z,8.32
2022-12-20T13:59:34.010Z,6.80
2022-12-20T14:06:26.137Z,6.25
2022-12-20T14:13:22.912Z,7.80
2022-12-20T14:20:15.582Z,7.75
2022-12-20T14:26:59.646Z,7.30
2022-12-20T14:33:42.397Z,7.75
2022-12-20T14:40:25.066Z,7.45
2022-12-20T14:47:25.902Z,7.35
2022-12-20T14:55:05.210Z,8.95
2022-12-20T15:01:31.157Z,10.63
2022-12-20T15:08:21.109Z,10.82
2022-12-20T15:15:27.748Z,10.50
2022-12-20T15:22:06.586Z,9.70
2022-12-20T15:28:49.145Z,9.82
2022-12-20T15:35:33.669Z,9.32
2022-12-20T15:42:20.565Z,9.13
2022-12-20T15:49:02.960Z,10.02
2022-12-20T15:55:45.335Z,9.75
2022-12-20T16:02:29.866Z,9.43
2022-12-20T16:09:12.857Z,9.13
2022-12-20T16:15:55.221Z,8.27
2022-12-20T16:22:41.931Z,9.43
2022-12-20T16:29:53.113Z,10.48
2022-12-20T16:36:35.549Z,10.57
2022-12-20T16:43:18.452Z,9.20
2022-12-20T16:50:00.776Z,10.50
2022-12-20T16:56:55.987Z,9.02
2022-12-20T17:03:38.550Z,9.32
2022-12-20T17:10:21.199Z,8.93
2022-12-20T17:17:03.513Z,8.63
2022-12-20T17:23:46.146Z,8.63
2022-12-20T17:30:28.560Z,8.10
2022-12-20T17:37:10.943Z,7.35
2022-12-20T17:43:53.778Z,8.73
2022-12-20T17:50:50.841Z,7.38
2022-12-20T17:57:33.253Z,8.90
2022-12-20T18:04:16.846Z,7.18
2022-12-20T18:10:59.319Z,6.55
2022-12-20T18:17:42.263Z,7.38
2022-12-20T18:24:24.676Z,7.32
2022-12-20T18:31:09.398Z,8.68
2022-12-20T18:37:53.849Z,8.90
2022-12-20T18:44:36.329Z,8.55
2022-12-20T18:51:21.496Z,7.72
2022-12-20T18:58:08.607Z,8.25
2022-12-20T19:04:51.250Z,8.52
2022-12-20T19:11:33.838Z,7.78
2022-12-20T19:18:16.598Z,8.55
2022-12-20T19:24:59.173Z,8.50
2022-12-20T19:31:41.667Z,8.52
2022-12-20T19:38:24.118Z,8.20
2022-12-20T19:45:06.735Z,10.98
2022-12-20T19:51:49.456Z,10.40
2022-12-20T19:58:31.847Z,11.45
2022-12-20T20:05:15.339Z,11.15
2022-12-20T20:11:57.978Z,11.20
2022-12-20T20:18:41.594Z,12.95
2022-12-20T20:25:23.929Z,12.25
2022-12-20T20:32:07.560Z,11.25
2022-12-20T20:38:51.695Z,10.02
2022-12-20T20:45:34.085Z,11.52
2022-12-20T20:52:16.357Z,12.80
2022-12-20T20:59:04.568Z,12.27
2022-12-20T21:13:00.704Z,12.48
2022-12-20T21:19:43.256Z,11.20
2022-12-20T21:26:25.625Z,12.77
2022-12-20T21:33:08.105Z,9.38
2022-12-20T21:39:50.672Z,11.55
2022-12-20T21:46:33.309Z,10.07
2022-12-20T21:53:19.346Z,9.52
2022-12-20T22:00:02.247Z,11.40
2022-12-20T22:06:50.607Z,12.55
2022-12-20T22:13:40.865Z,12.55
2022-12-20T22:20:23.771Z,11.90
2022-12-20T22:27:11.182Z,12.52
2022-12-20T22:33:55.445Z,12.85
2022-12-20T22:40:37.952Z,13.10
2022-12-20T22:47:20.632Z,11.02
2022-12-20T22:54:03.022Z,13.50
2022-12-20T23:00:45.417Z,11.48
2022-12-20T23:07:28.119Z,11.48
2022-12-20T23:14:35.012Z,11.27
2022-12-20T23:21:35.835Z,10.70
2022-12-20T23:28:38.677Z,11.32
2022-12-20T23:35:21.372Z,11.73
2022-12-20T23:42:04.040Z,10.45
2022-12-20T23:48:46.502Z,11.35
2022-12-20T23:55:38.735Z,11.48
